Time;durP1;ratioP1;P1;durP2;ratioP2;P2;SDS_P1;SDS_P2;PMS_P1;PMS_P2;Temp;Humidity;BMP_temperature;BMP_pressure;BME280_temperature;BME280_humidity;BME280_pressure;Samples;Min_cycle;Max_cycle;Signal;HPM_P1;HPM_P2
2023/08/22 00:02:06;;;;;;;17.83;11.80;;;;;;;;;;2614625;54;20387;-75
2023/08/22 00:07:36;;;;;;;20.30;12.87;;;;;;;;;;2614724;54;20370;-75
2023/08/22 00:13:06;;;;;;;17.00;13.53;;;;;;;;;;2614438;54;20359;-76
2023/08/22 00:18:36;;;;;;;14.40;12.90;;;;;;;;;;2615191;54;20419;-77
2023/08/22 00:24:06;;;;;;;16.80;13.10;;;;;;;;;;2616139;39;22110;-76
2023/08/22 00:29:35;;;;;;;15.73;13.00;;;;;;;;;;2615158;54;20377;-74
2023/08/22 00:35:05;;;;;;;16.33;13.97;;;;;;;;;;2615261;54;20411;-76
2023/08/22 00:40:35;;;;;;;22.33;13.30;;;;;;;;;;2615052;54;20422;-74
2023/08/22 00:46:05;;;;;;;14.70;13.10;;;;;;;;;;2615453;54;20466;-72
2023/08/22 00:51:35;;;;;;;15.73;14.17;;;;;;;;;;2615411;54;20363;-72
2023/08/22 01:00:44;;;;;;;15.47;11.97;;;;;;;;;;2615239;54;20437;-72
2023/08/22 01:06:20;;;;;;;13.93;12.00;;;;;;;;;;2615808;39;20877;-71
2023/08/22 01:11:50;;;;;;;16.37;13.03;;;;;;;;;;2615279;54;20454;-71
2023/08/22 01:17:19;;;;;;;13.33;11.80;;;;;;;;;;2615382;54;20415;-72
2023/08/22 01:22:49;;;;;;;13.53;11.43;;;;;;;;;;2615123;54;20423;-70
2023/08/22 01:28:22;;;;;;;14.03;12.00;;;;;;;;;;2614742;54;20386;-72
2023/08/22 01:33:54;;;;;;;14.90;11.30;;;;;;;;;;2615029;54;20387;-71
2023/08/22 01:39:26;;;;;;;12.50;11.20;;;;;;;;;;2614916;54;20407;-72
2023/08/22 01:44:55;;;;;;;12.97;11.67;;;;;;;;;;2615154;54;20383;-71
2023/08/22 01:50:25;;;;;;;12.33;10.27;;;;;;;;;;2614758;54;20421;-71
2023/08/22 01:56:10;;;;;;;23.97;13.87;;;;;;;;;;2615196;39;20981;-74
2023/08/22 02:01:39;;;;;;;15.57;11.20;;;;;;;;;;2615014;54;20434;-74
2023/08/22 02:07:09;;;;;;;15.53;10.93;;;;;;;;;;2614302;54;20447;-75
2023/08/22 02:12:39;;;;;;;13.33;10.27;;;;;;;;;;2614529;54;20371;-74
2023/08/22 02:18:09;;;;;;;10.83;9.67;;;;;;;;;;2614998;54;20375;-73
2023/08/22 02:23:39;;;;;;;12.73;11.63;;;;;;;;;;2615338;54;20387;-74
2023/08/22 02:29:09;;;;;;;20.67;11.60;;;;;;;;;;2614820;54;20374;-74
2023/08/22 02:34:38;;;;;;;15.80;11.10;;;;;;;;;;2614916;54;20974;-74
2023/08/22 02:40:11;;;;;;;15.10;11.33;;;;;;;;;;2614296;54;20438;-74
2023/08/22 02:45:42;;;;;;;20.93;12.57;;;;;;;;;;2614434;54;20402;-73
2023/08/22 02:51:12;;;;;;;17.07;11.00;;;;;;;;;;2614840;54;20443;-74
2023/08/22 03:02:49;;;;;;;13.90;9.93;;;;;;;;;;2615846;54;20375;-74
2023/08/22 03:08:18;;;;;;;15.10;11.03;;;;;;;;;;2614938;54;20375;-74
2023/08/22 03:13:48;;;;;;;14.23;12.20;;;;;;;;;;2615260;54;20415;-75
2023/08/22 03:19:18;;;;;;;13.20;11.23;;;;;;;;;;2615385;46;20910;-74
2023/08/22 03:24:47;;;;;;;15.30;10.67;;;;;;;;;;2615156;54;20383;-75
2023/08/22 03:30:17;;;;;;;15.33;11.13;;;;;;;;;;2615006;54;20407;-75
2023/08/22 03:35:47;;;;;;;12.20;11.00;;;;;;;;;;2615256;54;20427;-74
2023/08/22 03:38:31;;;;;;;18.30;11.47;;;;;;;;;;2615020;46;20581;-74
2023/08/22 03:40:57;;;;;;;12.63;11.20;;;;;;;;;;2615024;54;20412;-74
2023/08/22 03:46:27;;;;;;;13.27;11.73;;;;;;;;;;2615120;54;20912;-74
2023/08/22 03:51:57;;;;;;;15.27;11.67;;;;;;;;;;2616080;54;21258;-75
2023/08/22 04:03:34;;;;;;;22.20;13.60;;;;;;;;;;2616224;54;20440;-75
2023/08/22 04:09:04;;;;;;;14.67;12.50;;;;;;;;;;2615983;54;20406;-75
2023/08/22 04:14:33;;;;;;;30.60;14.37;;;;;;;;;;2615319;54;20387;-71
2023/08/22 04:20:03;;;;;;;15.67;13.40;;;;;;;;;;2614959;54;20483;-70
2023/08/22 04:25:33;;;;;;;18.40;14.20;;;;;;;;;;2614667;54;20499;-74
2023/08/22 04:31:03;;;;;;;15.47;13.70;;;;;;;;;;2614442;54;20502;-74
2023/08/22 04:36:32;;;;;;;18.83;11.47;;;;;;;;;;2615125;54;20367;-73
2023/08/22 04:42:02;;;;;;;12.77;11.43;;;;;;;;;;2615497;54;20403;-74
2023/08/22 04:47:32;;;;;;;25.33;11.10;;;;;;;;;;2615033;54;20362;-74
2023/08/22 04:53:02;;;;;;;13.67;12.10;;;;;;;;;;2615652;39;20864;-74
2023/08/22 05:02:12;;;;;;;14.70;11.63;;;;;;;;;;2615211;54;20395;-75
2023/08/22 05:07:42;;;;;;;14.00;12.47;;;;;;;;;;2615148;54;20914;-74
2023/08/22 05:13:12;;;;;;;14.77;12.13;;;;;;;;;;2615435;54;20387;-74
2023/08/22 05:18:42;;;;;;;18.30;11.80;;;;;;;;;;2614982;54;20400;-74
2023/08/22 05:24:11;;;;;;;19.30;12.97;;;;;;;;;;2615705;54;20378;-74
2023/08/22 05:29:41;;;;;;;15.70;11.73;;;;;;;;;;2615292;54;20379;-74
2023/08/22 05:35:10;;;;;;;12.50;11.20;;;;;;;;;;2614693;54;20407;-71
2023/08/22 05:40:40;;;;;;;13.87;11.37;;;;;;;;;;2614655;54;20362;-72
2023/08/22 05:46:09;;;;;;;11.57;10.47;;;;;;;;;;2614704;54;20376;-71
2023/08/22 05:51:39;;;;;;;14.00;10.57;;;;;;;;;;2615090;54;20362;-71
2023/08/22 05:57:09;;;;;;;12.67;9.90;;;;;;;;;;2613983;54;20414;-70
2023/08/22 06:02:38;;;;;;;11.57;9.80;;;;;;;;;;2614064;46;20510;-73
2023/08/22 06:08:08;;;;;;;10.93;9.33;;;;;;;;;;2614654;54;20897;-75
2023/08/22 06:13:38;;;;;;;11.50;9.50;;;;;;;;;;2614939;54;20379;-74
2023/08/22 06:19:07;;;;;;;12.97;10.73;;;;;;;;;;2614377;54;20460;-74
2023/08/22 06:24:37;;;;;;;23.30;11.10;;;;;;;;;;2614923;54;20367;-73
2023/08/22 06:30:07;;;;;;;15.63;12.63;;;;;;;;;;2614181;54;20940;-74
2023/08/22 06:35:36;;;;;;;13.47;12.27;;;;;;;;;;2614378;54;20507;-73
2023/08/22 06:41:07;;;;;;;12.83;11.70;;;;;;;;;;2614291;54;20965;-73
2023/08/22 06:46:37;;;;;;;13.93;12.90;;;;;;;;;;2614508;54;20360;-73
2023/08/22 06:52:06;;;;;;;15.40;14.00;;;;;;;;;;2614356;54;20355;-74
2023/08/22 06:57:36;;;;;;;14.23;12.70;;;;;;;;;;2614797;54;20960;-73
2023/08/22 07:06:43;;;;;;;16.83;14.80;;;;;;;;;;2613358;54;20435;-74
2023/08/22 07:12:13;;;;;;;15.47;14.03;;;;;;;;;;2614365;54;20391;-71
2023/08/22 07:17:43;;;;;;;15.13;13.87;;;;;;;;;;2613983;54;20419;-71
2023/08/22 07:23:13;;;;;;;17.53;16.03;;;;;;;;;;2614267;47;20848;-71
2023/08/22 07:28:42;;;;;;;15.30;14.17;;;;;;;;;;2614088;54;20547;-71
2023/08/22 07:34:12;;;;;;;15.83;14.67;;;;;;;;;;2614470;54;20603;-71
2023/08/22 07:39:42;;;;;;;16.03;14.83;;;;;;;;;;2614488;54;20362;-69
2023/08/22 07:45:12;;;;;;;16.17;14.80;;;;;;;;;;2614759;39;21057;-70
2023/08/22 07:50:41;;;;;;;15.70;14.60;;;;;;;;;;2614188;54;20444;-72
2023/08/22 07:56:11;;;;;;;16.33;14.90;;;;;;;;;;2613885;54;20391;-73
2023/08/22 08:01:41;;;;;;;16.50;15.20;;;;;;;;;;2614078;54;20359;-72
2023/08/22 08:07:11;;;;;;;17.37;15.47;;;;;;;;;;2613903;54;21158;-72
2023/08/22 08:12:40;;;;;;;17.80;16.37;;;;;;;;;;2614260;54;20415;-73
2023/08/22 08:18:10;;;;;;;14.30;13.27;;;;;;;;;;2613811;54;20427;-72
2023/08/22 08:23:39;;;;;;;15.33;14.00;;;;;;;;;;2613245;54;20383;-72
2023/08/22 08:29:09;;;;;;;14.40;13.40;;;;;;;;;;2613400;54;20423;-73
2023/08/22 08:34:39;;;;;;;14.93;13.80;;;;;;;;;;2614033;54;20367;-74
2023/08/22 08:40:09;;;;;;;14.40;13.50;;;;;;;;;;2615186;54;21086;-73
2023/08/22 08:45:39;;;;;;;14.70;13.50;;;;;;;;;;2615105;54;20355;-74
2023/08/22 08:51:09;;;;;;;15.57;14.40;;;;;;;;;;2615467;54;20391;-74
2023/08/22 08:56:40;;;;;;;14.00;13.13;;;;;;;;;;2614833;46;20366;-74
2023/08/22 09:02:14;;;;;;;14.17;13.30;;;;;;;;;;2614830;54;20423;-73
2023/08/22 09:11:09;;;;;;;16.43;14.90;;;;;;;;;;2614905;54;20403;-73
2023/08/22 09:16:39;;;;;;;14.90;13.87;;;;;;;;;;2614654;54;20395;-73
2023/08/22 09:22:12;;;;;;;15.70;14.40;;;;;;;;;;2615130;54;20897;-72
2023/08/22 09:27:41;;;;;;;18.17;16.80;;;;;;;;;;2614537;54;20383;-73
2023/08/22 09:33:11;;;;;;;17.60;16.20;;;;;;;;;;2615145;39;21216;-71
2023/08/22 09:38:57;;;;;;;17.30;15.80;;;;;;;;;;2614708;54;20478;-71
2023/08/22 09:44:27;;;;;;;17.07;15.43;;;;;;;;;;2614789;54;20408;-70
2023/08/22 09:50:02;;;;;;;18.40;16.50;;;;;;;;;;2615018;54;20359;-71
2023/08/22 09:55:32;;;;;;;16.87;15.57;;;;;;;;;;2614582;54;20359;-71
2023/08/22 10:01:02;;;;;;;16.60;15.03;;;;;;;;;;2614933;54;20382;-70
2023/08/22 10:06:33;;;;;;;16.00;14.50;;;;;;;;;;2614791;54;20423;-70
2023/08/22 10:12:05;;;;;;;14.67;13.13;;;;;;;;;;2614900;54;20854;-73
2023/08/22 10:17:35;;;;;;;15.50;14.30;;;;;;;;;;2614821;54;20932;-74
2023/08/22 10:23:04;;;;;;;14.03;12.97;;;;;;;;;;2614897;54;20379;-74
2023/08/22 10:40:38;;;;;;;15.70;14.40;;;;;;;;;;2615252;39;21218;-74
2023/08/22 10:46:08;;;;;;;16.90;15.43;;;;;;;;;;2614833;54;20358;-73
2023/08/22 10:51:43;;;;;;;17.20;15.43;;;;;;;;;;2614473;54;20363;-73
2023/08/22 10:57:16;;;;;;;16.70;15.30;;;;;;;;;;2614334;54;20359;-73
2023/08/22 11:09:04;;;;;;;17.50;16.10;;;;;;;;;;2613986;54;20446;-74
2023/08/22 11:11:57;;;;;;;18.10;16.40;;;;;;;;;;2614356;54;20431;-73
2023/08/22 11:17:27;;;;;;;18.40;16.60;;;;;;;;;;2614094;54;20378;-75
2023/08/22 11:22:57;;;;;;;20.17;16.40;;;;;;;;;;2614439;54;20379;-73
2023/08/22 11:28:33;;;;;;;15.53;14.20;;;;;;;;;;2614703;54;20410;-73
2023/08/22 11:34:03;;;;;;;17.17;15.80;;;;;;;;;;2614338;54;20398;-73
2023/08/22 11:39:33;;;;;;;15.60;14.60;;;;;;;;;;2614139;54;20414;-73
2023/08/22 11:45:07;;;;;;;17.20;16.00;;;;;;;;;;2614609;39;20736;-73
2023/08/22 11:50:37;;;;;;;16.87;15.53;;;;;;;;;;2614396;54;20455;-73
2023/08/22 11:56:07;;;;;;;17.27;15.80;;;;;;;;;;2614040;54;20414;-73
2023/08/22 12:01:37;;;;;;;18.43;16.43;;;;;;;;;;2614629;54;20426;-72
2023/08/22 12:07:06;;;;;;;15.30;14.10;;;;;;;;;;2614484;46;20417;-73
2023/08/22 12:12:36;;;;;;;15.90;14.93;;;;;;;;;;2614969;46;20925;-74
2023/08/22 12:18:06;;;;;;;15.00;13.97;;;;;;;;;;2614905;54;20418;-75
2023/08/22 12:23:37;;;;;;;14.47;13.50;;;;;;;;;;2615471;54;20386;-75
2023/08/22 12:29:06;;;;;;;13.90;13.07;;;;;;;;;;2614916;39;20772;-74
2023/08/22 12:34:36;;;;;;;14.40;13.60;;;;;;;;;;2615814;46;20377;-74
2023/08/22 12:40:10;;;;;;;14.90;13.90;;;;;;;;;;2615418;46;20378;-75
2023/08/22 12:45:39;;;;;;;14.00;13.10;;;;;;;;;;2614478;54;20511;-74
2023/08/22 12:51:09;;;;;;;11.87;11.27;;;;;;;;;;2614838;54;20886;-73
2023/08/22 12:56:39;;;;;;;14.87;13.80;;;;;;;;;;2614677;54;20941;-74
2023/08/22 13:02:08;;;;;;;14.57;13.80;;;;;;;;;;2615185;54;20395;-75
2023/08/22 13:07:38;;;;;;;15.70;14.77;;;;;;;;;;2614826;54;20391;-74
2023/08/22 13:16:46;;;;;;;15.20;14.30;;;;;;;;;;2614619;54;20423;-73
2023/08/22 13:22:15;;;;;;;15.93;14.73;;;;;;;;;;2614551;54;20355;-74
2023/08/22 13:27:45;;;;;;;15.67;13.90;;;;;;;;;;2614364;54;20375;-75
2023/08/22 13:33:15;;;;;;;15.53;14.43;;;;;;;;;;2614456;54;20383;-74
2023/08/22 13:38:44;;;;;;;14.97;13.83;;;;;;;;;;2614411;54;20664;-73
2023/08/22 13:44:14;;;;;;;14.10;13.30;;;;;;;;;;2614907;54;20542;-74
2023/08/22 13:49:44;;;;;;;16.17;15.10;;;;;;;;;;2615241;54;20383;-74
2023/08/22 13:55:14;;;;;;;14.87;13.77;;;;;;;;;;2615656;39;20818;-74
2023/08/22 14:00:44;;;;;;;16.37;15.10;;;;;;;;;;2614758;54;20940;-74
2023/08/22 14:06:13;;;;;;;16.97;15.40;;;;;;;;;;2614942;54;20928;-73
2023/08/22 14:11:43;;;;;;;14.20;13.40;;;;;;;;;;2615209;54;20459;-73
2023/08/22 14:17:12;;;;;;;14.10;13.20;;;;;;;;;;2614806;39;20810;-74
2023/08/22 14:22:42;;;;;;;15.27;14.27;;;;;;;;;;2615082;54;20391;-75
2023/08/22 14:28:11;;;;;;;15.23;13.80;;;;;;;;;;2614805;39;20470;-74
2023/08/22 14:33:41;;;;;;;15.73;14.83;;;;;;;;;;2614766;54;20379;-73
2023/08/22 14:39:11;;;;;;;15.33;14.13;;;;;;;;;;2614458;54;20369;-73
2023/08/22 14:44:41;;;;;;;17.27;15.80;;;;;;;;;;2614449;54;20471;-72
2023/08/22 14:50:11;;;;;;;14.23;13.33;;;;;;;;;;2614333;54;20443;-72
2023/08/22 14:55:41;;;;;;;13.53;12.53;;;;;;;;;;2614153;54;21218;-74
2023/08/22 15:01:11;;;;;;;15.37;14.37;;;;;;;;;;2613990;54;20362;-73
2023/08/22 15:06:41;;;;;;;13.50;12.33;;;;;;;;;;2613747;54;20475;-73
2023/08/22 15:12:10;;;;;;;15.50;14.30;;;;;;;;;;2614778;39;20760;-73
2023/08/22 15:21:15;;;;;;;16.23;14.93;;;;;;;;;;2614249;54;20527;-73
2023/08/22 15:26:44;;;;;;;15.57;14.53;;;;;;;;;;2614184;54;21047;-74
2023/08/22 15:32:14;;;;;;;15.67;14.60;;;;;;;;;;2614662;54;20401;-72
2023/08/22 15:37:44;;;;;;;15.07;13.87;;;;;;;;;;2614320;54;20414;-73
2023/08/22 15:43:20;;;;;;;15.53;14.53;;;;;;;;;;2614977;31;20848;-73
2023/08/22 15:48:49;;;;;;;15.60;14.60;;;;;;;;;;2614747;54;21315;-73
2023/08/22 15:54:19;;;;;;;15.43;14.37;;;;;;;;;;2614853;54;20381;-73
2023/08/22 15:59:48;;;;;;;16.17;14.70;;;;;;;;;;2614814;54;20386;-73
2023/08/22 16:05:18;;;;;;;14.77;13.90;;;;;;;;;;2615743;54;20391;-74
2023/08/22 16:10:48;;;;;;;15.30;14.10;;;;;;;;;;2615044;54;20383;-74
2023/08/22 16:16:18;;;;;;;15.33;14.10;;;;;;;;;;2615469;54;20375;-75
2023/08/22 16:21:47;;;;;;;15.07;13.80;;;;;;;;;;2615019;54;20378;-74
2023/08/22 16:27:17;;;;;;;14.20;13.30;;;;;;;;;;2615150;54;20426;-74
2023/08/22 16:32:47;;;;;;;15.80;14.30;;;;;;;;;;2615216;46;20385;-74
2023/08/22 16:38:16;;;;;;;15.30;14.30;;;;;;;;;;2615945;39;20767;-74
2023/08/22 16:43:46;;;;;;;15.90;15.00;;;;;;;;;;2615288;54;20495;-75
2023/08/22 16:49:16;;;;;;;15.33;13.73;;;;;;;;;;2615339;54;20387;-74
2023/08/22 16:54:46;;;;;;;15.23;14.43;;;;;;;;;;2615459;54;20491;-74
2023/08/22 17:00:19;;;;;;;14.63;13.40;;;;;;;;;;2615920;39;20706;-74
2023/08/22 17:05:48;;;;;;;14.80;14.10;;;;;;;;;;2614969;54;20379;-75
2023/08/22 17:11:18;;;;;;;13.80;13.10;;;;;;;;;;2615061;54;20511;-73
2023/08/22 17:16:48;;;;;;;27.43;15.53;;;;;;;;;;2614437;54;20358;-74
2023/08/22 17:22:17;;;;;;;14.50;13.63;;;;;;;;;;2614947;54;21209;-74
2023/08/22 17:27:48;;;;;;;14.90;14.00;;;;;;;;;;2614779;54;20379;-74
2023/08/22 17:33:18;;;;;;;14.27;13.50;;;;;;;;;;2614806;54;20898;-74
2023/08/22 17:38:50;;;;;;;15.77;14.67;;;;;;;;;;2614992;54;20559;-75
2023/08/22 17:44:19;;;;;;;15.20;14.10;;;;;;;;;;2615625;54;20429;-75
2023/08/22 17:49:49;;;;;;;15.93;14.83;;;;;;;;;;2614644;54;20612;-76
2023/08/22 17:55:19;;;;;;;15.97;14.60;;;;;;;;;;2614900;39;20729;-74
2023/08/22 18:00:49;;;;;;;16.40;14.83;;;;;;;;;;2614676;54;20921;-74
2023/08/22 18:06:19;;;;;;;15.13;14.03;;;;;;;;;;2614700;54;20402;-75
2023/08/22 18:11:48;;;;;;;16.47;15.30;;;;;;;;;;2614476;54;20451;-73
2023/08/22 18:23:25;;;;;;;15.13;13.70;;;;;;;;;;2614752;54;20359;-73
2023/08/22 18:28:54;;;;;;;14.70;13.43;;;;;;;;;;2614594;54;21018;-73
2023/08/22 18:34:24;;;;;;;14.30;13.27;;;;;;;;;;2614758;54;20375;-73
2023/08/22 18:39:54;;;;;;;14.17;12.90;;;;;;;;;;2614626;54;20358;-73
2023/08/22 18:45:24;;;;;;;12.40;11.50;;;;;;;;;;2613955;39;21048;-73
2023/08/22 18:51:00;;;;;;;15.87;13.90;;;;;;;;;;2614768;54;20446;-72
2023/08/22 18:56:31;;;;;;;13.63;12.47;;;;;;;;;;2614815;54;20418;-73
2023/08/22 19:02:00;;;;;;;12.63;11.57;;;;;;;;;;2614333;54;20355;-73
2023/08/22 19:07:30;;;;;;;12.23;11.00;;;;;;;;;;2614127;54;20387;-73
2023/08/22 19:13:00;;;;;;;12.97;11.80;;;;;;;;;;2614257;54;20414;-73
2023/08/22 19:22:01;;;;;;;15.27;11.60;;;;;;;;;;2614582;54;20418;-73
2023/08/22 19:27:33;;;;;;;12.30;11.27;;;;;;;;;;2614539;39;20757;-73
2023/08/22 19:33:02;;;;;;;12.87;11.77;;;;;;;;;;2614424;54;20382;-73
2023/08/22 19:38:32;;;;;;;12.20;11.00;;;;;;;;;;2614697;54;20905;-74
2023/08/22 19:44:02;;;;;;;12.30;11.30;;;;;;;;;;2614309;54;20517;-74
2023/08/22 19:49:31;;;;;;;12.30;11.10;;;;;;;;;;2614456;54;20519;-76
2023/08/22 19:55:02;;;;;;;14.87;10.13;;;;;;;;;;2614811;39;20760;-74
2023/08/22 20:00:32;;;;;;;12.53;11.00;;;;;;;;;;2614152;54;20423;-75
2023/08/22 20:06:02;;;;;;;11.87;10.67;;;;;;;;;;2614612;54;20426;-72
2023/08/22 20:11:31;;;;;;;12.10;11.10;;;;;;;;;;2615310;39;20683;-71
2023/08/22 20:17:01;;;;;;;15.67;11.60;;;;;;;;;;2614566;54;20411;-70
2023/08/22 20:22:31;;;;;;;12.73;11.63;;;;;;;;;;2615053;39;20787;-69
2023/08/22 20:28:01;;;;;;;16.17;11.07;;;;;;;;;;2614473;54;20415;-70
2023/08/22 20:33:31;;;;;;;18.43;10.53;;;;;;;;;;2615173;54;20527;-71
2023/08/22 20:39:03;;;;;;;12.47;10.10;;;;;;;;;;2615599;54;20358;-70
2023/08/22 20:44:33;;;;;;;17.63;10.20;;;;;;;;;;2614957;54;20386;-70
2023/08/22 20:50:03;;;;;;;11.00;9.23;;;;;;;;;;2615250;54;20359;-70
2023/08/22 20:55:39;;;;;;;11.67;9.70;;;;;;;;;;2614705;54;20438;-71
2023/08/22 21:01:08;;;;;;;13.23;8.63;;;;;;;;;;2614931;54;20391;-70
2023/08/22 21:06:38;;;;;;;10.60;8.27;;;;;;;;;;2614928;54;20382;-70
2023/08/22 21:12:08;;;;;;;8.97;8.10;;;;;;;;;;2615616;54;20405;-70
2023/08/22 21:23:26;;;;;;;18.83;9.73;;;;;;;;;;2615188;54;20383;-70
2023/08/22 21:28:55;;;;;;;12.93;9.00;;;;;;;;;;2615026;54;20446;-69
2023/08/22 21:34:25;;;;;;;11.10;8.83;;;;;;;;;;2615137;54;20403;-70
2023/08/22 21:39:54;;;;;;;27.67;9.13;;;;;;;;;;2615208;54;20355;-71
2023/08/22 21:45:24;;;;;;;9.70;8.17;;;;;;;;;;2614796;54;20395;-73
2023/08/22 21:50:54;;;;;;;10.33;9.03;;;;;;;;;;2615582;54;20359;-72
2023/08/22 21:56:23;;;;;;;9.50;8.30;;;;;;;;;;2614831;54;20406;-74
2023/08/22 22:01:53;;;;;;;14.23;8.33;;;;;;;;;;2614865;54;20937;-74
2023/08/22 22:07:23;;;;;;;11.53;8.57;;;;;;;;;;2615167;54;20355;-74
2023/08/22 22:12:52;;;;;;;10.23;8.93;;;;;;;;;;2615338;54;20515;-74
2023/08/22 22:22:06;;;;;;;11.53;9.80;;;;;;;;;;2615796;54;20941;-74
2023/08/22 22:27:35;;;;;;;14.20;10.20;;;;;;;;;;2615340;54;20375;-74
2023/08/22 22:33:05;;;;;;;13.73;8.43;;;;;;;;;;2615473;54;20447;-74
2023/08/22 22:38:35;;;;;;;11.43;9.90;;;;;;;;;;2615168;54;20463;-74
2023/08/22 22:44:05;;;;;;;9.47;8.53;;;;;;;;;;2614967;54;20423;-73
2023/08/22 22:49:35;;;;;;;10.03;9.07;;;;;;;;;;2614698;54;20395;-74
2023/08/22 22:55:04;;;;;;;11.83;8.90;;;;;;;;;;2614970;54;20387;-73
2023/08/22 23:00:34;;;;;;;13.03;9.73;;;;;;;;;;2615060;54;20415;-74
2023/08/22 23:06:05;;;;;;;11.60;7.97;;;;;;;;;;2614464;54;20484;-73
2023/08/22 23:11:34;;;;;;;9.50;8.50;;;;;;;;;;2614471;54;20379;-72
2023/08/22 23:17:04;;;;;;;9.97;9.00;;;;;;;;;;2614112;54;20391;-73
2023/08/22 23:22:34;;;;;;;14.20;11.30;;;;;;;;;;2614355;54;20425;-73
2023/08/22 23:28:04;;;;;;;9.70;8.70;;;;;;;;;;2614541;54;20383;-73
2023/08/22 23:33:33;;;;;;;14.57;9.27;;;;;;;;;;2614831;54;20383;-74
2023/08/22 23:39:03;;;;;;;14.60;9.70;;;;;;;;;;2615115;54;20379;-74
2023/08/22 23:44:34;;;;;;;13.73;9.97;;;;;;;;;;2615033;54;20374;-74
2023/08/22 23:50:04;;;;;;;12.67;8.97;;;;;;;;;;2615380;39;20972;-74
2023/08/22 23:55:34;;;;;;;11.10;9.93;;;;;;;;;;2614495;54;20450;-74
